Time;durP1;ratioP1;P1;durP2;ratioP2;P2;SDS_P1;SDS_P2;PMS_P1;PMS_P2;Temp;Humidity;BMP_temperature;BMP_pressure;BME280_temperature;BME280_humidity;BME280_pressure;Samples;Min_cycle;Max_cycle;Signal;HPM_P1;HPM_P2
2023/09/30 00:00:25;;;;;;;190.90;182.57;;;;;;;17.48;68.55;100771.31;5064720;28;20182;-80
2023/09/30 00:02:50;;;;;;;156.43;149.20;;;;;;;17.50;68.29;100774.59;5065400;28;20102;-80
2023/09/30 00:05:19;;;;;;;191.77;182.65;;;;;;;17.56;67.98;100773.47;5066061;28;20043;-79
2023/09/30 00:07:44;;;;;;;159.52;152.77;;;;;;;17.57;67.85;100772.38;5065724;28;20048;-79
2023/09/30 00:10:10;;;;;;;205.85;196.60;;;;;;;17.57;67.86;100772.38;5065367;28;20032;-79
2023/09/30 00:12:35;;;;;;;196.05;187.15;;;;;;;17.57;67.85;100777.88;5065310;28;20040;-79
2023/09/30 00:15:00;;;;;;;140.87;134.67;;;;;;;17.54;67.83;100780.34;5065736;28;20029;-80
2023/09/30 00:17:26;;;;;;;169.40;160.82;;;;;;;17.56;68.15;100772.63;5065453;28;20315;-80
2023/09/30 00:19:51;;;;;;;137.53;130.87;;;;;;;17.53;67.76;100767.69;5065525;28;20391;-79
2023/09/30 00:22:16;;;;;;;144.47;138.27;;;;;;;17.50;67.96;100775.44;5065483;28;20296;-79
2023/09/30 00:24:42;;;;;;;150.10;143.07;;;;;;;17.43;68.02;100782.38;5063671;28;20258;-79
2023/09/30 00:27:07;;;;;;;184.00;175.57;;;;;;;17.46;68.00;100790.06;5065541;28;20071;-79
2023/09/30 00:29:33;;;;;;;122.28;116.63;;;;;;;17.39;67.90;100784.88;5065371;28;20044;-79
2023/09/30 00:31:58;;;;;;;199.68;190.02;;;;;;;17.42;68.52;100792.59;5065006;28;20856;-79
2023/09/30 00:34:24;;;;;;;78.37;74.27;;;;;;;17.19;68.57;100785.84;5065635;28;20387;-79
2023/09/30 00:36:49;;;;;;;213.73;203.23;;;;;;;17.30;68.79;100781.09;5064802;28;20257;-79
2023/09/30 00:39:14;;;;;;;224.57;214.40;;;;;;;17.38;68.27;100772.22;5065456;28;20109;-79
2023/09/30 00:41:40;;;;;;;105.07;100.30;;;;;;;17.41;67.81;100770.81;5065758;28;20029;-79
2023/09/30 00:44:06;;;;;;;225.13;214.55;;;;;;;17.33;68.45;100770.31;5064686;28;20468;-79
2023/09/30 00:46:32;;;;;;;135.45;128.98;;;;;;;17.37;68.16;100771.38;5065055;28;20562;-80
2023/09/30 00:48:59;;;;;;;191.75;183.43;;;;;;;17.45;68.25;100769.94;5065466;28;20390;-78
2023/09/30 00:51:26;;;;;;;155.98;149.43;;;;;;;17.59;67.86;100777.59;5064969;28;20029;-80
2023/09/30 00:53:52;;;;;;;157.02;149.20;;;;;;;17.55;67.56;100777.34;5064683;28;20040;-80
2023/09/30 00:56:19;;;;;;;145.63;138.15;;;;;;;17.50;67.50;100771.84;5065095;28;20532;-78
2023/09/30 00:58:47;;;;;;;154.25;147.43;;;;;;;17.44;67.88;100765.56;5063561;28;20036;-80
2023/09/30 01:01:12;;;;;;;156.65;149.73;;;;;;;17.46;68.28;100768.84;5065410;28;20447;-80
2023/09/30 01:03:38;;;;;;;136.38;130.05;;;;;;;17.46;67.75;100763.34;5064325;28;20040;-80
2023/09/30 01:06:03;;;;;;;154.43;147.13;;;;;;;17.46;67.51;100763.34;5064400;28;20063;-79
2023/09/30 01:08:29;;;;;;;145.70;138.77;;;;;;;17.50;67.67;100769.91;5064903;28;20063;-76
2023/09/30 01:10:56;;;;;;;140.95;134.35;;;;;;;17.53;67.34;100779.56;5065232;28;20386;-79
2023/09/30 01:13:21;;;;;;;139.35;132.60;;;;;;;17.52;67.26;100786.16;5064220;28;20490;-79
2023/09/30 01:15:47;;;;;;;134.48;127.97;;;;;;;17.48;67.34;100804.38;5065307;28;20068;-79
2023/09/30 01:18:12;;;;;;;88.75;83.97;;;;;;;17.23;68.16;100803.44;5065112;28;20070;-80
2023/09/30 01:20:37;;;;;;;124.70;118.03;;;;;;;17.24;68.15;100796.84;5065436;28;20050;-79
2023/09/30 01:23:03;;;;;;;105.38;100.28;;;;;;;17.24;68.23;100789.41;5064305;28;20524;-79
2023/09/30 01:25:29;;;;;;;112.38;106.93;;;;;;;17.30;67.82;100764.56;5064186;28;20051;-79
2023/09/30 01:27:55;;;;;;;96.28;91.47;;;;;;;17.20;67.81;100770.97;5064914;28;20040;-80
2023/09/30 01:30:22;;;;;;;192.90;184.05;;;;;;;17.23;68.15;100762.09;5063948;28;20067;-79
2023/09/30 01:32:48;;;;;;;134.73;128.57;;;;;;;17.34;67.96;100765.63;5064462;28;20032;-79
2023/09/30 01:35:13;;;;;;;168.93;161.65;;;;;;;17.43;67.76;100763.09;5064316;28;20119;-80
2023/09/30 01:37:39;;;;;;;127.32;121.22;;;;;;;17.44;67.58;100764.72;5064284;28;20103;-81
2023/09/30 01:40:08;;;;;;;150.80;143.60;;;;;;;17.45;67.66;100772.69;5063993;28;20528;-81
2023/09/30 01:42:33;;;;;;;117.00;111.82;;;;;;;17.40;67.01;100758.97;5064145;28;20406;-80
2023/09/30 01:44:58;;;;;;;149.50;142.75;;;;;;;17.34;67.32;100771.97;5063913;28;20036;-80
2023/09/30 01:47:24;;;;;;;169.00;161.70;;;;;;;17.34;67.24;100782.16;5064429;28;20075;-81
2023/09/30 01:49:49;;;;;;;123.60;117.90;;;;;;;17.29;67.88;100790.47;5063617;28;20342;-80
2023/09/30 01:52:14;;;;;;;127.10;120.77;;;;;;;17.29;67.64;100802.31;5062789;28;20542;-80
2023/09/30 01:54:40;;;;;;;112.57;106.97;;;;;;;17.12;68.31;100802.66;5064096;28;20261;-80
2023/09/30 01:57:05;;;;;;;169.75;162.30;;;;;;;17.02;68.59;100795.28;5063755;28;20264;-80
2023/09/30 01:59:31;;;;;;;109.80;104.35;;;;;;;17.18;68.10;100784.19;5063476;28;20044;-81
2023/09/30 02:01:56;;;;;;;88.67;84.00;;;;;;;17.10;67.57;100802.94;5063129;28;20484;-80
2023/09/30 02:04:21;;;;;;;146.43;140.25;;;;;;;17.18;68.12;100815.34;5063485;28;20637;-81
2023/09/30 02:06:47;;;;;;;130.23;124.23;;;;;;;17.15;68.11;100793.84;5064025;28;20074;-81
2023/09/30 02:09:12;;;;;;;130.00;124.00;;;;;;;17.18;67.92;100795.22;5063200;28;20324;-74
2023/09/30 02:11:38;;;;;;;119.47;113.95;;;;;;;17.02;68.12;100796.06;5063226;28;20306;-73
2023/09/30 02:14:03;;;;;;;229.60;219.02;;;;;;;17.17;68.09;100805.41;5062558;28;20039;-73
2023/09/30 02:16:28;;;;;;;152.88;146.18;;;;;;;17.30;67.84;100814.97;5063228;28;20040;-72
2023/09/30 02:18:54;;;;;;;133.63;127.63;;;;;;;17.08;67.79;100813.44;5063305;28;20032;-75
2023/09/30 02:21:21;;;;;;;117.50;111.87;;;;;;;17.07;68.12;100813.69;5063221;28;20040;-73
2023/09/30 02:23:48;;;;;;;92.63;88.20;;;;;;;17.09;67.89;100820.56;5062620;28;20258;-73
2023/09/30 02:26:14;;;;;;;75.03;71.65;;;;;;;16.95;68.25;100811.28;5063001;28;20036;-72
2023/09/30 02:28:40;;;;;;;112.30;106.78;;;;;;;16.99;68.52;100798.56;5063488;28;20036;-74
2023/09/30 02:31:07;;;;;;;183.32;175.32;;;;;;;17.13;68.14;100794.13;5063033;28;20133;-74
2023/09/30 02:33:35;;;;;;;130.13;123.78;;;;;;;17.18;67.60;100798.81;5062443;28;20047;-72
2023/09/30 02:36:00;;;;;;;137.35;130.93;;;;;;;17.06;67.90;100792.78;5062671;28;20058;-72
2023/09/30 02:38:25;;;;;;;149.63;143.25;;;;;;;17.07;68.03;100792.47;5062964;28;20028;-73
2023/09/30 02:40:51;;;;;;;138.50;132.70;;;;;;;17.20;67.57;100798.50;5062859;28;20044;-74
2023/09/30 02:43:16;;;;;;;123.93;117.80;;;;;;;17.09;67.27;100784.75;5062379;28;20265;-72
2023/09/30 02:45:43;;;;;;;171.38;162.77;;;;;;;17.09;67.91;100786.69;5063041;28;20033;-73
2023/09/30 02:48:08;;;;;;;146.40;140.02;;;;;;;17.05;67.67;100786.44;5062824;28;20154;-73
2023/09/30 02:50:34;;;;;;;172.57;164.67;;;;;;;16.92;68.02;100785.13;5062981;28;20466;-72
2023/09/30 02:52:59;;;;;;;172.40;164.98;;;;;;;16.98;67.79;100781.25;5062396;28;20256;-73
2023/09/30 02:55:24;;;;;;;155.82;149.43;;;;;;;17.07;67.87;100789.72;5062485;28;20037;-74
2023/09/30 02:57:50;;;;;;;155.00;148.00;;;;;;;17.08;67.32;100796.91;5062843;28;20028;-73
2023/09/30 03:00:25;;;;;;;135.97;129.40;;;;;;;17.05;67.30;100794.69;5062735;28;20129;-72
2023/09/30 03:02:55;;;;;;;102.18;97.50;;;;;;;16.94;67.54;100801.38;5062211;28;20531;-73
2023/09/30 03:05:21;;;;;;;157.23;150.30;;;;;;;16.90;67.86;100823.16;5061881;28;20040;-73
2023/09/30 03:07:47;;;;;;;165.30;157.90;;;;;;;17.00;68.04;100823.06;5062242;28;20075;-72
2023/09/30 03:10:19;;;;;;;152.95;146.20;;;;;;;16.99;67.64;100809.59;5062311;28;20131;-73
2023/09/30 03:12:46;;;;;;;169.27;160.93;;;;;;;17.03;67.71;100807.94;5062197;28;20107;-73
2023/09/30 03:15:11;;;;;;;158.30;150.88;;;;;;;17.05;67.54;100813.97;5061297;28;20047;-72
2023/09/30 03:17:37;;;;;;;131.60;126.23;;;;;;;16.97;67.78;100814.56;5061932;28;20097;-79
2023/09/30 03:20:09;;;;;;;163.65;157.00;;;;;;;17.02;67.81;100803.53;5062521;28;20261;-73
2023/09/30 03:22:34;;;;;;;162.85;155.05;;;;;;;17.01;67.68;100802.72;5061789;28;20044;-73
2023/09/30 03:25:00;;;;;;;144.93;138.60;;;;;;;17.07;67.54;100798.00;5060421;28;20033;-72
2023/09/30 03:27:25;;;;;;;145.18;138.98;;;;;;;16.92;68.09;100799.72;5061458;28;20285;-72
2023/09/30 03:29:50;;;;;;;97.13;92.47;;;;;;;16.98;67.60;100794.19;5062592;28;20032;-72
2023/09/30 03:32:15;;;;;;;148.35;141.25;;;;;;;16.88;67.90;100797.81;5061791;28;20048;-73
2023/09/30 03:34:44;;;;;;;146.30;139.23;;;;;;;16.97;67.53;100796.13;5061792;28;20178;-73
2023/09/30 03:37:10;;;;;;;133.82;128.27;;;;;;;16.97;67.42;100795.28;5061813;28;20289;-73
2023/09/30 03:39:35;;;;;;;99.38;94.72;;;;;;;16.95;67.64;100792.81;5062114;28;20079;-72
2023/09/30 03:42:01;;;;;;;94.93;89.77;;;;;;;16.57;68.52;100804.28;5062071;28;20068;-72
2023/09/30 03:44:26;;;;;;;128.63;122.72;;;;;;;16.75;68.15;100790.97;5061582;28;20254;-72
2023/09/30 03:46:52;;;;;;;100.57;95.15;;;;;;;16.60;68.25;100787.19;5061180;28;20053;-73
2023/09/30 03:49:19;;;;;;;113.30;107.85;;;;;;;16.73;68.24;100782.19;5062260;28;20453;-72
2023/09/30 03:51:45;;;;;;;121.85;116.68;;;;;;;16.85;67.97;100781.84;5061931;28;20347;-73
2023/09/30 03:54:11;;;;;;;153.30;146.27;;;;;;;16.79;67.88;100779.13;5061303;28;20064;-72
2023/09/30 03:56:38;;;;;;;150.20;143.50;;;;;;;16.87;67.40;100788.72;5061643;28;20036;-72
2023/09/30 03:59:03;;;;;;;116.57;111.22;;;;;;;16.84;67.44;100789.28;5062289;28;20029;-72
2023/09/30 04:01:29;;;;;;;136.02;129.02;;;;;;;16.83;67.56;100784.88;5061732;28;20429;-73
2023/09/30 04:03:55;;;;;;;145.48;139.50;;;;;;;16.78;67.81;100782.97;5061606;28;20437;-73
2023/09/30 04:06:20;;;;;;;141.57;134.80;;;;;;;16.80;67.81;100789.03;5061703;28;20140;-73
2023/09/30 04:08:46;;;;;;;121.28;115.90;;;;;;;16.83;67.39;100793.16;5062366;28;20111;-72
2023/09/30 04:11:17;;;;;;;120.10;113.75;;;;;;;16.85;67.52;100787.34;5061978;28;20113;-73
2023/09/30 04:13:43;;;;;;;170.18;162.05;;;;;;;16.88;67.58;100787.59;5061450;28;20158;-73
2023/09/30 04:16:08;;;;;;;147.90;141.13;;;;;;;16.74;67.57;100792.09;5064298;28;20058;-72
2023/09/30 04:18:33;;;;;;;189.75;181.43;;;;;;;16.77;67.55;100797.03;5065408;28;20041;-72
2023/09/30 04:20:59;;;;;;;140.93;134.45;;;;;;;16.91;67.47;100800.84;5065107;28;20149;-73
2023/09/30 04:23:25;;;;;;;157.00;148.93;;;;;;;16.88;67.22;100787.59;5065310;28;20040;-73
2023/09/30 04:25:50;;;;;;;93.18;88.55;;;;;;;16.97;66.90;100795.28;5064705;28;20273;-73
2023/09/30 04:28:20;;;;;;;105.05;100.47;;;;;;;16.84;66.60;100794.00;5065548;28;20560;-79
2023/09/30 04:30:45;;;;;;;104.07;99.32;;;;;;;16.80;66.93;100790.97;5064989;28;20063;-79
2023/09/30 04:33:12;;;;;;;123.05;116.88;;;;;;;16.68;67.32;100783.84;5065335;28;20404;-80
2023/09/30 04:35:37;;;;;;;129.68;124.13;;;;;;;16.71;66.95;100793.47;5065557;28;20518;-79
2023/09/30 04:38:04;;;;;;;130.57;124.63;;;;;;;16.64;67.38;100793.78;5064997;28;20528;-78
2023/09/30 04:40:29;;;;;;;97.53;92.90;;;;;;;16.71;67.23;100799.00;5065755;28;20273;-79
2023/09/30 04:42:58;;;;;;;156.15;149.68;;;;;;;16.69;67.11;100807.53;5064880;28;20024;-79
2023/09/30 04:45:24;;;;;;;105.55;100.90;;;;;;;16.69;67.10;100810.28;5064891;28;20040;-79
2023/09/30 04:47:50;;;;;;;113.78;108.72;;;;;;;16.71;67.18;100814.69;5065588;28;20063;-79
2023/09/30 04:50:16;;;;;;;151.48;144.93;;;;;;;16.75;67.24;100818.50;5065076;28;20028;-79
2023/09/30 04:52:42;;;;;;;116.03;110.60;;;;;;;16.69;67.03;100825.97;5064689;28;20494;-79
2023/09/30 04:55:08;;;;;;;146.50;139.63;;;;;;;16.66;67.22;100813.59;5065156;28;20032;-79
2023/09/30 04:57:33;;;;;;;150.85;144.60;;;;;;;16.71;66.95;100821.00;5063785;28;20131;-79
2023/09/30 04:59:59;;;;;;;117.88;112.72;;;;;;;16.63;67.16;100814.16;5064860;28;20119;-79
2023/09/30 05:02:24;;;;;;;123.55;118.15;;;;;;;16.71;67.13;100817.44;5064713;28;20036;-79
2023/09/30 05:04:50;;;;;;;137.10;131.05;;;;;;;16.71;66.77;100811.91;5065122;28;20124;-79
2023/09/30 05:07:15;;;;;;;154.10;147.20;;;;;;;16.68;66.38;100827.91;5065209;28;20024;-78
2023/09/30 05:09:42;;;;;;;106.88;101.93;;;;;;;16.50;66.74;100832.06;5064495;28;20967;-79
2023/09/30 05:12:07;;;;;;;138.48;132.43;;;;;;;16.45;67.03;100837.59;5064439;28;20476;-79
2023/09/30 05:14:33;;;;;;;119.97;114.07;;;;;;;16.46;67.10;100844.75;5064373;28;20036;-77
2023/09/30 05:16:58;;;;;;;135.32;129.30;;;;;;;16.27;67.62;100845.31;5061161;28;20289;-79
2023/09/30 05:19:24;;;;;;;103.22;98.68;;;;;;;16.18;67.76;100830.47;5063971;28;20497;-80
2023/09/30 05:21:49;;;;;;;135.90;129.07;;;;;;;16.24;67.81;100842.31;5064304;28;20076;-79
2023/09/30 05:24:18;;;;;;;144.10;137.30;;;;;;;16.23;67.28;100852.50;5063533;28;20070;-79
2023/09/30 05:26:44;;;;;;;136.93;130.63;;;;;;;16.17;67.68;100851.66;5063543;28;20306;-79
2023/09/30 05:29:10;;;;;;;110.00;105.18;;;;;;;16.09;67.89;100863.22;5063646;28;20112;-78
2023/09/30 05:31:36;;;;;;;89.03;84.70;;;;;;;16.20;67.85;100856.63;5064163;28;20072;-78
2023/09/30 05:34:02;;;;;;;109.13;103.78;;;;;;;16.10;68.03;100859.38;5063908;28;20081;-78
2023/09/30 05:36:27;;;;;;;88.25;83.20;;;;;;;15.85;69.13;100856.31;5064891;28;20167;-80
2023/09/30 05:38:55;;;;;;;131.20;125.00;;;;;;;15.95;68.74;100852.75;5065041;28;20543;-79
2023/09/30 05:41:20;;;;;;;100.18;94.30;;;;;;;15.79;69.33;100849.16;5064556;28;20699;-79
2023/09/30 05:43:46;;;;;;;116.28;110.97;;;;;;;15.82;69.54;100853.28;5063634;28;20040;-78
2023/09/30 05:46:13;;;;;;;142.13;135.90;;;;;;;15.86;69.65;100859.91;5063573;28;20044;-79
2023/09/30 05:48:39;;;;;;;137.85;131.43;;;;;;;15.94;69.48;100853.03;5064750;28;20038;-79
2023/09/30 05:51:05;;;;;;;109.65;104.63;;;;;;;15.99;69.44;100855.75;5064070;28;20426;-79
2023/09/30 05:53:32;;;;;;;152.43;145.77;;;;;;;15.98;69.71;100865.97;5063817;28;20032;-79
2023/09/30 05:55:59;;;;;;;177.10;169.48;;;;;;;16.13;69.33;100863.50;5064207;28;20052;-79
2023/09/30 05:58:26;;;;;;;176.60;168.70;;;;;;;16.28;68.78;100859.91;5064361;28;20543;-78
2023/09/30 06:00:51;;;;;;;131.00;125.10;;;;;;;16.21;68.90;100855.50;5062593;28;20049;-79
2023/09/30 06:03:16;;;;;;;132.75;126.28;;;;;;;16.16;69.17;100851.94;5063831;28;20039;-79
2023/09/30 06:05:42;;;;;;;183.93;176.02;;;;;;;16.24;69.07;100851.38;5063480;28;20056;-79
2023/09/30 06:08:10;;;;;;;146.40;139.48;;;;;;;16.27;68.97;100855.53;5062365;28;20401;-80
2023/09/30 06:10:38;;;;;;;125.97;120.57;;;;;;;16.18;69.19;100853.31;5063301;28;20044;-79
2023/09/30 06:13:04;;;;;;;122.00;116.32;;;;;;;16.20;69.21;100850.28;5062616;28;20223;-79
2023/09/30 06:15:29;;;;;;;112.80;107.45;;;;;;;16.17;69.34;100848.91;5063344;28;20493;-79
2023/09/30 06:17:56;;;;;;;110.20;105.07;;;;;;;16.03;70.02;100856.09;5063581;28;20033;-78
2023/09/30 06:20:22;;;;;;;123.65;117.93;;;;;;;15.95;69.98;100860.16;5063544;28;20045;-77
2023/09/30 06:22:53;;;;;;;145.52;138.95;;;;;;;15.98;70.58;100854.97;5064080;28;20129;-81
2023/09/30 06:25:19;;;;;;;119.22;113.78;;;;;;;15.83;70.88;100864.00;5064379;28;20049;-81
2023/09/30 06:27:46;;;;;;;130.15;123.47;;;;;;;15.91;71.06;100859.88;5064509;28;20040;-80
2023/09/30 06:30:13;;;;;;;37.13;33.85;;;;;;;15.64;71.95;100869.22;5063345;28;20037;-83
2023/09/30 06:32:38;;;;;;;49.53;45.28;;;;;;;15.53;71.94;100868.38;5063879;28;20158;-81
2023/09/30 06:35:05;;;;;;;39.90;36.95;;;;;;;15.54;72.56;100872.75;5064071;28;20207;-81
2023/09/30 06:37:31;;;;;;;49.70;46.47;;;;;;;15.46;72.89;100871.34;5064019;28;20128;-80
2023/09/30 06:39:56;;;;;;;44.90;41.47;;;;;;;15.54;72.82;100877.44;5064267;28;20044;-78
2023/09/30 06:42:22;;;;;;;25.92;23.50;;;;;;;15.55;72.58;100876.34;5064506;28;20398;-77
2023/09/30 06:44:47;;;;;;;30.85;28.33;;;;;;;15.51;73.11;100874.13;5066126;28;20032;-79
2023/09/30 06:47:12;;;;;;;26.57;24.10;;;;;;;15.58;73.20;100867.56;5063049;28;20491;-75
2023/09/30 06:49:39;;;;;;;36.85;33.95;;;;;;;15.63;72.52;100881.28;5063215;28;20282;-75
2023/09/30 06:52:04;;;;;;;34.10;30.95;;;;;;;15.85;72.00;100883.81;5062789;28;20047;-78
2023/09/30 06:54:31;;;;;;;44.40;41.42;;;;;;;15.85;71.79;100877.47;5063403;28;20025;-77
2023/09/30 06:56:56;;;;;;;44.30;41.22;;;;;;;15.85;71.60;100880.22;5063319;28;20125;-78
2023/09/30 06:59:21;;;;;;;38.95;35.95;;;;;;;15.80;71.92;100883.81;5062861;28;20490;-77
2023/09/30 07:01:47;;;;;;;46.38;42.50;;;;;;;15.87;72.25;100887.13;5062342;28;20122;-84
2023/09/30 07:04:12;;;;;;;37.55;34.67;;;;;;;15.98;72.67;100887.97;5062594;28;20036;-79
2023/09/30 07:06:38;;;;;;;34.73;32.33;;;;;;;16.10;72.04;100884.13;5063455;28;20097;-78
2023/09/30 07:09:04;;;;;;;43.10;40.03;;;;;;;16.12;71.71;100887.44;5063105;28;20265;-78
2023/09/30 07:11:32;;;;;;;48.72;45.17;;;;;;;16.04;72.00;100888.81;5062642;28;20109;-79
2023/09/30 07:13:58;;;;;;;39.38;36.92;;;;;;;16.06;72.09;100894.03;5062520;28;20040;-80
2023/09/30 07:16:24;;;;;;;36.40;33.30;;;;;;;15.76;73.03;100891.75;5063019;28;20051;-79
2023/09/30 07:18:50;;;;;;;31.88;29.27;;;;;;;15.78;73.36;100910.75;5063493;28;20028;-80
2023/09/30 07:21:15;;;;;;;32.45;29.02;;;;;;;15.79;73.45;100911.56;5062919;28;20058;-79
2023/09/30 07:23:41;;;;;;;34.40;31.85;;;;;;;15.91;72.90;100920.38;5062877;28;20040;-80
2023/09/30 07:26:06;;;;;;;46.03;42.80;;;;;;;16.06;73.13;100916.03;5063091;28;20490;-82
2023/09/30 07:28:32;;;;;;;31.95;28.52;;;;;;;15.97;73.30;100918.47;5064243;28;20046;-84
2023/09/30 07:30:58;;;;;;;20.95;9.80;;;;;;;16.08;73.52;100919.34;5062745;28;20101;-84
2023/09/30 07:33:23;;;;;;;16.67;11.73;;;;;;;16.29;72.74;100924.84;5063311;28;20040;-83
2023/09/30 07:35:49;;;;;;;82.97;78.07;;;;;;;16.37;72.64;100929.81;5062730;28;20264;-82
2023/09/30 07:38:14;;;;;;;47.55;43.78;;;;;;;16.69;71.61;100936.94;5063565;28;20028;-83
2023/09/30 07:40:39;;;;;;;92.80;88.07;;;;;;;16.87;70.78;100950.38;5063592;28;20039;-81
2023/09/30 07:43:05;;;;;;;34.23;32.00;;;;;;;16.68;70.92;100951.78;5063148;28;20109;-81
2023/09/30 07:45:31;;;;;;;86.10;80.60;;;;;;;16.59;71.43;100955.38;5063136;28;20750;-79
2023/09/30 07:47:58;;;;;;;35.22;32.38;;;;;;;16.63;71.17;100961.97;5062574;28;20964;-80
2023/09/30 07:50:23;;;;;;;45.63;42.83;;;;;;;16.50;71.79;100964.19;5064590;28;20040;-79
2023/09/30 07:52:48;;;;;;;35.38;32.35;;;;;;;16.61;72.12;100959.50;5066145;28;20071;-80
2023/09/30 07:55:14;;;;;;;33.93;31.80;;;;;;;16.69;71.44;100961.72;5066990;28;20036;-80
2023/09/30 07:57:42;;;;;;;48.72;45.10;;;;;;;16.74;71.34;100962.81;5066428;28;20273;-79
2023/09/30 08:00:09;;;;;;;43.28;40.67;;;;;;;16.71;71.01;100964.19;5066125;28;20085;-81
2023/09/30 08:02:34;;;;;;;42.25;38.90;;;;;;;16.75;71.67;100970.78;5066089;28;20032;-81
2023/09/30 08:05:00;;;;;;;45.47;40.90;;;;;;;16.96;70.98;100969.91;5066428;28;20497;-80
2023/09/30 08:07:25;;;;;;;37.30;34.53;;;;;;;16.86;71.27;100966.06;5065952;28;20044;-79
2023/09/30 08:09:51;;;;;;;38.35;35.83;;;;;;;16.97;71.25;100971.56;5066333;28;20024;-81
2023/09/30 08:12:16;;;;;;;39.15;36.65;;;;;;;17.14;70.92;100965.78;5064865;28;20044;-80
2023/09/30 08:14:44;;;;;;;81.88;78.18;;;;;;;17.07;70.67;100954.19;5066168;28;20119;-80
2023/09/30 08:17:10;;;;;;;43.13;40.28;;;;;;;17.21;70.51;100968.22;5065469;28;20493;-80
2023/09/30 08:19:35;;;;;;;103.07;98.22;;;;;;;17.37;70.38;100963.50;5066134;28;20941;-78
2023/09/30 08:22:01;;;;;;;66.28;62.45;;;;;;;17.26;70.97;100968.22;5065539;28;20032;-78
2023/09/30 08:24:28;;;;;;;63.78;60.03;;;;;;;17.50;70.35;100962.88;5065741;28;20028;-78
2023/09/30 08:26:55;;;;;;;53.42;50.42;;;;;;;17.39;70.13;100967.59;5065098;28;20067;-78
2023/09/30 08:29:21;;;;;;;87.07;82.28;;;;;;;17.53;69.89;100969.78;5065686;28;20039;-82
2023/09/30 08:31:46;;;;;;;36.40;33.88;;;;;;;17.74;69.29;100966.88;5066211;28;20025;-80
2023/09/30 08:34:14;;;;;;;51.13;47.85;;;;;;;17.67;69.28;100966.38;5064230;28;20044;-78
2023/09/30 08:36:39;;;;;;;61.97;58.38;;;;;;;17.63;69.10;100968.91;5065051;28;20692;-78
2023/09/30 08:39:10;;;;;;;64.65;61.50;;;;;;;17.70;68.72;100976.84;5064290;28;20040;-77
2023/09/30 08:41:35;;;;;;;69.50;64.85;;;;;;;17.62;68.28;100981.84;5064355;28;20044;-78
2023/09/30 08:44:02;;;;;;;125.20;119.07;;;;;;;17.57;69.11;100990.16;5064729;28;20506;-77
2023/09/30 08:46:31;;;;;;;54.45;50.40;;;;;;;17.70;67.57;100987.88;5064117;28;20055;-79
2023/09/30 08:49:00;;;;;;;36.75;33.65;;;;;;;17.79;67.27;100980.66;5065130;28;20155;-76
2023/09/30 08:51:26;;;;;;;40.67;38.22;;;;;;;17.71;67.62;100984.00;5065416;28;20461;-77
2023/09/30 08:53:52;;;;;;;72.03;66.93;;;;;;;17.66;68.12;100981.28;5065783;28;20051;-76
2023/09/30 08:56:23;;;;;;;62.33;58.90;;;;;;;17.55;68.07;100978.59;5066172;28;20529;-76
2023/09/30 08:58:48;;;;;;;139.55;132.65;;;;;;;17.44;68.24;100980.56;5064347;28;20033;-77
2023/09/30 09:01:14;;;;;;;113.05;108.25;;;;;;;17.39;68.06;100972.28;5063650;28;20036;-77
2023/09/30 09:03:40;;;;;;;93.97;89.47;;;;;;;17.44;68.22;100975.03;5064244;28;20494;-77
2023/09/30 09:06:05;;;;;;;122.43;116.28;;;;;;;17.47;67.98;100962.63;5064947;28;20040;-77
2023/09/30 09:08:32;;;;;;;90.55;85.75;;;;;;;17.49;68.47;100974.19;5064689;28;20202;-77
2023/09/30 09:11:00;;;;;;;102.90;98.13;;;;;;;17.47;68.04;100966.19;5065073;28;20043;-77
2023/09/30 09:13:26;;;;;;;93.05;88.13;;;;;;;17.48;68.09;100956.00;5064669;28;20108;-78
2023/09/30 09:16:08;;;;;;;93.50;88.65;;;;;;;17.53;67.95;100952.41;5062977;28;20317;-76
2023/09/30 09:18:33;;;;;;;94.47;90.07;;;;;;;17.58;67.67;100953.19;5064957;28;20687;-77
2023/09/30 09:21:09;;;;;;;85.93;81.93;;;;;;;17.65;67.25;100946.53;5064417;28;20048;-77
2023/09/30 09:23:39;;;;;;;97.55;91.47;;;;;;;17.50;67.69;100945.50;5064440;28;20051;-76
2023/09/30 09:26:06;;;;;;;93.32;88.53;;;;;;;17.64;67.95;100945.72;5064510;28;20039;-76
2023/09/30 09:28:42;;;;;;;88.13;83.75;;;;;;;17.64;67.94;100939.38;5061256;28;20401;-76
2023/09/30 09:31:27;;;;;;;98.68;93.75;;;;;;;17.71;67.34;100937.13;5064718;28;20037;-76
2023/09/30 09:33:53;;;;;;;99.13;94.35;;;;;;;17.74;67.62;100944.84;5063918;28;20029;-76
2023/09/30 09:36:19;;;;;;;93.55;89.20;;;;;;;17.75;67.22;100949.25;5062297;28;20040;-77
2023/09/30 09:38:49;;;;;;;77.68;71.22;;;;;;;17.80;66.88;100949.22;5064359;28;20044;-76
2023/09/30 09:41:16;;;;;;;41.38;38.90;;;;;;;17.92;66.53;100954.38;5064592;28;20036;-77
2023/09/30 09:43:43;;;;;;;42.90;40.40;;;;;;;17.92;65.87;100948.06;5064124;28;20032;-77
2023/09/30 09:46:09;;;;;;;30.38;28.38;;;;;;;17.98;65.42;100949.63;5063555;28;20127;-77
2023/09/30 09:48:36;;;;;;;15.80;10.75;;;;;;;17.89;64.88;100941.16;5063947;28;20150;-77
2023/09/30 09:51:03;;;;;;;13.05;6.72;;;;;;;17.95;64.54;100945.53;5064026;28;20081;-77
2023/09/30 09:53:30;;;;;;;11.57;6.80;;;;;;;18.01;63.73;100953.78;5061455;28;20565;-78
2023/09/30 09:55:59;;;;;;;14.25;5.90;;;;;;;18.02;64.03;100944.41;5064607;28;20262;-76
2023/09/30 09:58:26;;;;;;;9.27;4.80;;;;;;;18.08;62.75;100943.25;5063915;28;20489;-77
2023/09/30 10:00:52;;;;;;;10.95;4.70;;;;;;;18.13;62.33;100939.59;5063759;28;20584;-77
2023/09/30 10:03:18;;;;;;;11.05;5.15;;;;;;;18.28;62.40;100942.31;5063335;28;20055;-77
2023/09/30 10:05:44;;;;;;;10.48;5.03;;;;;;;18.34;62.42;100953.28;5064383;28;20120;-77
2023/09/30 10:08:14;;;;;;;15.15;5.20;;;;;;;18.37;61.37;100949.94;5063442;28;20369;-77
2023/09/30 10:10:40;;;;;;;12.13;4.32;;;;;;;18.32;60.47;100950.81;5063726;28;20028;-77
2023/09/30 10:13:06;;;;;;;15.48;5.50;;;;;;;18.35;60.36;100950.22;5063087;28;20063;-77
2023/09/30 10:15:39;;;;;;;14.02;5.32;;;;;;;18.35;60.00;100954.91;5063455;28;20119;-76
2023/09/30 10:18:11;;;;;;;;;;;;;;;18.43;59.97;100959.81;5064083;28;20444;-77
2023/09/30 10:20:41;;;;;;;14.75;5.35;;;;;;;18.35;59.83;100968.72;5063958;28;19951;-77
2023/09/30 10:23:18;;;;;;;8.80;4.15;;;;;;;18.58;59.30;100977.38;5063028;28;20028;-75
2023/09/30 10:25:47;;;;;;;13.40;4.57;;;;;;;18.67;58.97;100981.19;5062370;28;20134;-78
2023/09/30 10:28:46;;;;;;;7.90;3.50;;;;;;;18.69;57.83;100978.94;5063307;28;20085;-76
2023/09/30 10:31:19;;;;;;;10.63;4.35;;;;;;;18.73;58.01;100963.41;5034575;28;20090;-78
2023/09/30 10:34:03;;;;;;;9.18;4.05;;;;;;;18.90;57.66;100962.16;5062740;28;20036;-77
2023/09/30 10:36:30;;;;;;;10.73;4.07;;;;;;;18.78;56.89;100966.16;5063501;28;20460;-78
2023/09/30 10:38:55;;;;;;;9.85;3.88;;;;;;;18.81;57.20;100977.72;5062631;28;20072;-77
2023/09/30 10:41:39;;;;;;;13.38;3.92;;;;;;;18.98;57.04;100980.84;5063529;28;20071;-77
2023/09/30 10:44:24;;;;;;;9.60;3.50;;;;;;;19.34;56.80;100989.91;5062372;28;20489;-77
2023/09/30 10:46:50;;;;;;;11.23;3.83;;;;;;;19.60;56.88;100981.28;5063140;28;20060;-77
2023/09/30 10:49:38;;;;;;;9.80;3.05;;;;;;;19.78;55.61;100973.28;5062613;28;20035;-77
2023/09/30 10:52:03;;;;;;;8.23;4.63;;;;;;;19.92;55.29;100982.50;5062465;28;20775;-77
2023/09/30 10:54:32;;;;;;;8.38;3.05;;;;;;;20.10;54.18;100982.00;5063564;28;20046;-77
2023/09/30 10:56:59;;;;;;;7.25;3.30;;;;;;;20.06;54.35;100990.03;5062736;28;20478;-77
2023/09/30 10:59:27;;;;;;;11.75;3.25;;;;;;;19.95;54.18;100981.88;5062667;28;20521;-77